createdAt,value
2022-09-23T00:00:03.017Z,0.00
2022-09-23T00:01:02.329Z,0.00
2022-09-23T00:02:02.312Z,0.00
2022-09-23T00:03:02.288Z,0.00
2022-09-23T00:04:02.208Z,0.00
2022-09-23T00:05:02.211Z,0.00
2022-09-23T00:06:02.181Z,0.00
2022-09-23T00:07:02.196Z,0.00
2022-09-23T00:08:02.178Z,0.00
2022-09-23T00:09:02.159Z,0.00
2022-09-23T00:10:02.135Z,0.00
2022-09-23T00:11:02.142Z,0.00
2022-09-23T00:12:05.674Z,0.00
2022-09-23T00:13:03.118Z,0.00
2022-09-23T00:14:02.088Z,0.00
2022-09-23T00:15:02.098Z,0.00
2022-09-23T00:16:02.074Z,0.00
2022-09-23T00:17:02.126Z,0.00
2022-09-23T00:18:02.052Z,0.00
2022-09-23T00:19:02.065Z,0.00
2022-09-23T00:20:02.112Z,0.00
2022-09-23T00:21:02.941Z,0.00
2022-09-23T00:22:02.049Z,0.00
2022-09-23T00:23:01.999Z,0.00
2022-09-23T00:24:02.122Z,0.00
2022-09-23T00:25:01.987Z,0.00
2022-09-23T00:26:02.116Z,0.00
2022-09-23T00:27:01.959Z,0.00
2022-09-23T00:28:01.936Z,0.00
2022-09-23T00:29:01.936Z,0.00
2022-09-23T00:30:01.935Z,0.00
2022-09-23T00:31:02.031Z,0.00
2022-09-23T00:32:01.894Z,0.00
2022-09-23T00:33:01.887Z,0.00
2022-09-23T00:34:01.885Z,0.00
2022-09-23T00:35:02.656Z,0.00
2022-09-23T00:36:01.847Z,0.00
2022-09-23T00:37:01.847Z,0.00
2022-09-23T00:38:01.819Z,0.00
2022-09-23T00:39:04.199Z,0.00
2022-09-23T00:40:02.802Z,0.00
2022-09-23T00:41:02.558Z,0.00
2022-09-23T00:42:01.856Z,0.00
2022-09-23T00:43:01.785Z,0.00
2022-09-23T00:44:01.755Z,0.00
2022-09-23T00:45:01.759Z,0.00
2022-09-23T00:46:02.668Z,0.00
2022-09-23T00:47:01.748Z,0.00
2022-09-23T00:48:02.512Z,0.00
2022-09-23T00:49:01.717Z,0.00
2022-09-23T00:50:01.705Z,0.00
2022-09-23T00:51:01.703Z,0.00
2022-09-23T00:52:02.526Z,0.00
2022-09-23T00:53:01.684Z,0.00
2022-09-23T00:54:01.728Z,0.00
2022-09-23T00:55:01.655Z,0.00
2022-09-23T00:56:01.631Z,0.00
2022-09-23T00:57:02.557Z,0.00
2022-09-23T00:58:01.605Z,0.00
2022-09-23T00:59:01.603Z,0.00
2022-09-23T01:00:01.588Z,0.00
2022-09-23T01:01:02.340Z,0.00
2022-09-23T01:02:01.611Z,0.00
2022-09-23T01:03:01.576Z,0.00
2022-09-23T01:04:02.125Z,0.00
2022-09-23T01:05:02.127Z,0.00
2022-09-23T01:06:01.528Z,0.00
2022-09-23T01:07:01.530Z,0.00
2022-09-23T01:08:01.567Z,0.00
2022-09-23T01:09:01.496Z,0.00
2022-09-23T01:10:01.464Z,0.00
2022-09-23T01:11:01.464Z,0.00
2022-09-23T01:12:01.515Z,0.00
2022-09-23T01:13:01.802Z,0.00
2022-09-23T01:14:01.426Z,0.00
2022-09-23T01:15:01.430Z,0.00
2022-09-23T01:16:01.395Z,0.00
2022-09-23T01:17:01.455Z,0.00
2022-09-23T01:18:01.382Z,0.00
2022-09-23T01:19:01.498Z,0.00
2022-09-23T01:20:01.356Z,0.00
2022-09-23T01:21:02.303Z,0.00
2022-09-23T01:22:01.353Z,0.00
2022-09-23T01:23:02.103Z,0.00
2022-09-23T01:24:02.016Z,0.00
2022-09-23T01:25:01.420Z,0.00
2022-09-23T01:26:01.284Z,0.00
2022-09-23T01:27:01.281Z,0.00
2022-09-23T01:28:01.266Z,0.00
2022-09-23T01:29:01.270Z,0.00
2022-09-23T01:30:01.264Z,0.00
2022-09-23T01:31:01.642Z,0.00
2022-09-23T01:32:01.223Z,0.00
2022-09-23T01:33:01.223Z,0.00
2022-09-23T01:34:01.203Z,0.00
2022-09-23T01:35:01.992Z,0.00
2022-09-23T01:36:01.183Z,0.00
2022-09-23T01:37:01.189Z,0.00
2022-09-23T01:38:01.155Z,0.00
2022-09-23T01:39:01.268Z,0.00
2022-09-23T01:40:01.130Z,0.00
2022-09-23T01:41:01.912Z,0.00
2022-09-23T01:42:01.930Z,0.00
2022-09-23T01:43:01.830Z,0.00
2022-09-23T01:44:01.092Z,0.00
2022-09-23T01:45:01.105Z,0.00
2022-09-23T01:46:01.949Z,0.00
2022-09-23T01:47:01.079Z,0.00
2022-09-23T01:48:01.938Z,0.00
2022-09-23T01:49:01.102Z,0.00
2022-09-23T01:50:01.012Z,0.00
2022-09-23T01:51:01.022Z,0.00
2022-09-23T01:52:01.011Z,0.00
2022-09-23T01:53:01.004Z,0.00
2022-09-23T01:54:00.970Z,0.00
2022-09-23T01:55:01.104Z,0.00
2022-09-23T01:56:00.949Z,0.00
2022-09-23T01:57:00.971Z,0.00
2022-09-23T01:58:00.940Z,0.00
2022-09-23T01:59:00.931Z,0.00
2022-09-23T02:00:00.914Z,0.00
2022-09-23T02:01:00.973Z,0.00
2022-09-23T02:02:00.953Z,0.00
2022-09-23T02:03:00.909Z,0.00
2022-09-23T02:04:01.776Z,0.00
2022-09-23T02:05:01.663Z,0.00
2022-09-23T02:06:01.158Z,0.00
2022-09-23T02:07:01.577Z,0.00
2022-09-23T02:08:00.838Z,0.00
2022-09-23T02:09:01.054Z,0.00
2022-09-23T02:10:01.266Z,0.00
2022-09-23T02:11:00.799Z,0.00
2022-09-23T02:12:00.787Z,0.00
2022-09-23T02:13:01.515Z,0.00
2022-09-23T02:14:00.780Z,0.00
2022-09-23T02:15:00.838Z,0.00
2022-09-23T02:16:00.730Z,0.00
2022-09-23T02:17:00.786Z,0.00
2022-09-23T02:18:00.700Z,0.00
2022-09-23T02:19:00.711Z,0.00
2022-09-23T02:20:00.688Z,0.00
2022-09-23T02:21:00.687Z,0.00
2022-09-23T02:22:00.877Z,0.00
2022-09-23T02:23:01.473Z,0.00
2022-09-23T02:24:00.646Z,0.00
2022-09-23T02:25:00.687Z,0.00
2022-09-23T02:26:00.616Z,0.00
2022-09-23T02:27:00.720Z,0.00
2022-09-23T02:28:00.587Z,0.00
2022-09-23T02:29:00.586Z,0.00
2022-09-23T02:30:00.575Z,0.00
2022-09-23T02:31:00.577Z,0.00
2022-09-23T02:32:00.798Z,0.00
2022-09-23T02:33:00.546Z,0.00
2022-09-23T02:34:00.532Z,0.00
2022-09-23T02:35:00.809Z,0.00
2022-09-23T02:36:00.515Z,0.00
2022-09-23T02:37:00.507Z,0.00
2022-09-23T02:38:00.593Z,0.00
2022-09-23T02:39:00.484Z,0.00
2022-09-23T02:40:00.474Z,0.00
2022-09-23T02:41:00.454Z,0.00
2022-09-23T02:42:00.447Z,0.00
2022-09-23T02:43:01.196Z,0.00
2022-09-23T02:44:01.253Z,0.00
2022-09-23T02:45:00.451Z,0.00
2022-09-23T02:46:00.442Z,0.00
2022-09-23T02:47:00.385Z,0.00
2022-09-23T02:48:01.115Z,0.00
2022-09-23T02:49:00.607Z,0.00
2022-09-23T02:50:00.346Z,0.00
2022-09-23T02:51:00.344Z,0.00
2022-09-23T02:52:00.342Z,0.00
2022-09-23T02:53:00.307Z,0.00
2022-09-23T02:54:01.051Z,0.00
2022-09-23T02:55:00.284Z,0.00
2022-09-23T02:56:00.289Z,0.00
2022-09-23T02:57:00.256Z,0.00
2022-09-23T02:58:00.263Z,0.00
2022-09-23T02:59:00.323Z,0.00
2022-09-23T03:00:00.327Z,0.00
2022-09-23T03:01:00.251Z,0.00
2022-09-23T03:02:00.310Z,0.00
2022-09-23T03:03:00.193Z,0.00
2022-09-23T03:04:01.116Z,0.00
2022-09-23T03:05:01.022Z,0.00
2022-09-23T03:06:00.203Z,0.00
2022-09-23T03:07:00.163Z,0.00
2022-09-23T03:08:00.150Z,0.00
2022-09-23T03:09:00.132Z,0.00
2022-09-23T03:10:00.177Z,0.00
2022-09-23T03:11:00.103Z,0.00
2022-09-23T03:12:00.113Z,0.00
2022-09-23T03:13:00.088Z,0.00
2022-09-23T03:14:00.101Z,0.00
2022-09-23T03:15:00.071Z,0.00
2022-09-23T03:16:00.110Z,0.00
2022-09-23T03:17:00.162Z,0.00
2022-09-23T03:18:00.793Z,0.00
2022-09-23T03:19:00.022Z,0.00
2022-09-23T03:20:00.018Z,0.00
2022-09-23T03:20:59.982Z,0.00
2022-09-23T03:22:00.010Z,0.00
2022-09-23T03:23:00.010Z,0.00
2022-09-23T03:24:00.733Z,0.00
2022-09-23T03:24:59.971Z,0.00
2022-09-23T03:25:59.962Z,0.00
2022-09-23T03:27:00.056Z,0.00
2022-09-23T03:27:59.931Z,0.00
2022-09-23T03:28:59.909Z,0.00
2022-09-23T03:29:59.934Z,0.00
2022-09-23T03:30:59.888Z,0.00
2022-09-23T03:31:59.930Z,0.00
2022-09-23T03:32:59.861Z,0.00
2022-09-23T03:33:59.863Z,0.00
2022-09-23T03:34:59.840Z,0.00
2022-09-23T03:35:59.839Z,0.00
2022-09-23T03:36:59.811Z,0.00
2022-09-23T03:38:00.159Z,0.00
2022-09-23T03:38:59.791Z,0.00
2022-09-23T03:39:59.798Z,0.00
2022-09-23T03:40:59.774Z,0.00
2022-09-23T03:41:59.781Z,0.00
2022-09-23T03:42:59.739Z,0.00
2022-09-23T03:44:00.602Z,0.00
2022-09-23T03:45:00.508Z,0.00
2022-09-23T03:45:59.925Z,0.00
2022-09-23T03:46:59.696Z,0.00
2022-09-23T03:47:59.717Z,0.00
2022-09-23T03:48:59.690Z,0.00
2022-09-23T03:49:59.678Z,0.00
2022-09-23T03:50:59.649Z,0.00
2022-09-23T03:51:59.669Z,0.00
2022-09-23T03:52:59.638Z,0.00
2022-09-23T03:53:59.691Z,0.00
2022-09-23T03:54:59.618Z,0.00
2022-09-23T03:55:59.610Z,0.00
2022-09-23T03:56:59.589Z,0.00
2022-09-23T03:57:59.596Z,0.00
2022-09-23T03:58:59.568Z,0.00
2022-09-23T03:59:59.609Z,0.00
2022-09-23T04:00:59.624Z,0.00
2022-09-23T04:01:59.648Z,0.00
2022-09-23T04:02:59.530Z,0.00
2022-09-23T04:03:59.569Z,0.00
2022-09-23T04:05:00.378Z,0.00
2022-09-23T04:06:00.292Z,0.00
2022-09-23T04:07:00.300Z,0.00
2022-09-23T04:07:59.498Z,0.00
2022-09-23T04:08:59.563Z,0.00
2022-09-23T04:09:59.448Z,0.00
2022-09-23T04:10:59.438Z,0.00
2022-09-23T04:11:59.462Z,0.00
2022-09-23T04:12:59.837Z,0.00
2022-09-23T04:14:00.292Z,0.00
2022-09-23T04:14:59.789Z,0.00
2022-09-23T04:15:59.484Z,0.00
2022-09-23T04:16:59.376Z,0.00
2022-09-23T04:18:00.178Z,0.00
2022-09-23T04:19:00.165Z,0.00
2022-09-23T04:19:59.371Z,0.00
2022-09-23T04:20:59.333Z,0.00
2022-09-23T04:22:00.039Z,0.00
2022-09-23T04:23:00.185Z,0.00
2022-09-23T04:24:00.099Z,0.00
2022-09-23T04:24:59.303Z,0.00
2022-09-23T04:26:00.157Z,0.00
2022-09-23T04:26:59.305Z,0.00
2022-09-23T04:27:59.506Z,0.00
2022-09-23T04:28:59.274Z,0.00
2022-09-23T04:29:59.245Z,0.00
2022-09-23T04:30:59.235Z,0.00
2022-09-23T04:31:59.276Z,0.00
2022-09-23T04:32:59.176Z,0.00
2022-09-23T04:33:59.205Z,0.00
2022-09-23T04:34:59.201Z,0.00
2022-09-23T04:35:59.174Z,0.00
2022-09-23T04:36:59.148Z,0.00
2022-09-23T04:37:59.148Z,0.00
2022-09-23T04:38:59.254Z,0.00
2022-09-23T04:39:59.124Z,0.00
2022-09-23T04:40:59.101Z,0.00
2022-09-23T04:41:59.113Z,0.00
2022-09-23T04:42:59.075Z,0.00
2022-09-23T04:43:59.073Z,0.00
2022-09-23T04:44:59.054Z,0.00
2022-09-23T04:45:59.772Z,0.00
2022-09-23T04:47:00.005Z,0.00
2022-09-23T04:47:59.034Z,0.00
2022-09-23T04:48:59.008Z,0.00
2022-09-23T04:49:59.939Z,0.00
2022-09-23T04:50:58.980Z,0.00
2022-09-23T04:51:59.015Z,0.00
2022-09-23T04:52:58.954Z,0.00
2022-09-23T04:53:58.964Z,0.00
2022-09-23T04:54:58.932Z,0.00
2022-09-23T04:55:58.991Z,0.00
2022-09-23T04:56:58.910Z,0.00
2022-09-23T04:57:58.922Z,0.00
2022-09-23T04:58:58.894Z,0.00
2022-09-23T04:59:58.892Z,0.00
2022-09-23T05:01:04.385Z,0.00
2022-09-23T05:02:00.840Z,0.00
2022-09-23T05:02:58.851Z,0.00
2022-09-23T05:03:58.844Z,0.00
2022-09-23T05:04:58.823Z,0.00
2022-09-23T05:05:58.834Z,0.00
2022-09-23T05:07:03.203Z,0.00
2022-09-23T05:07:58.822Z,0.00
2022-09-23T05:08:58.775Z,0.00
2022-09-23T05:09:58.771Z,0.00
2022-09-23T05:10:58.760Z,0.00
2022-09-23T05:11:58.762Z,0.00
2022-09-23T05:12:58.732Z,0.00
2022-09-23T05:13:58.735Z,0.00
2022-09-23T05:14:58.708Z,0.00
2022-09-23T05:15:58.752Z,0.00
2022-09-23T05:16:58.681Z,0.00
2022-09-23T05:17:59.371Z,0.00
2022-09-23T05:18:58.691Z,0.00
2022-09-23T05:19:58.661Z,0.00
2022-09-23T05:20:58.632Z,0.00
2022-09-23T05:21:58.642Z,0.00
2022-09-23T05:22:58.621Z,0.00
2022-09-23T05:23:59.348Z,0.00
2022-09-23T05:24:58.613Z,5.62
2022-09-23T05:25:58.610Z,5.62
2022-09-23T05:26:59.421Z,5.62
2022-09-23T05:27:59.322Z,5.62
2022-09-23T05:28:59.016Z,5.62
2022-09-23T05:29:58.578Z,5.62
2022-09-23T05:30:58.554Z,5.62
2022-09-23T05:31:58.555Z,5.62
2022-09-23T05:32:58.518Z,5.62
2022-09-23T05:33:58.516Z,5.62
2022-09-23T05:34:59.420Z,5.62
2022-09-23T05:35:58.506Z,5.62
2022-09-23T05:36:58.469Z,11.25
2022-09-23T05:37:58.466Z,11.25
2022-09-23T05:38:58.428Z,11.25
2022-09-23T05:39:58.518Z,11.25
2022-09-23T05:40:58.402Z,11.25
2022-09-23T05:41:58.440Z,11.25
2022-09-23T05:42:58.397Z,11.25
2022-09-23T05:43:58.388Z,11.25
2022-09-23T05:44:58.367Z,11.25
2022-09-23T05:45:58.367Z,11.25
2022-09-23T05:46:58.451Z,11.25
2022-09-23T05:47:59.054Z,11.25
2022-09-23T05:49:02.160Z,16.88
2022-09-23T05:50:00.546Z,16.88
2022-09-23T05:50:58.308Z,16.88
2022-09-23T05:51:58.324Z,16.88
2022-09-23T05:52:58.275Z,16.88
2022-09-23T05:53:58.368Z,16.88
2022-09-23T05:54:58.260Z,16.88
2022-09-23T05:55:58.324Z,16.88
2022-09-23T05:56:59.297Z,22.50
2022-09-23T05:57:58.274Z,22.50
2022-09-23T05:58:58.205Z,22.50
2022-09-23T05:59:58.239Z,22.50
2022-09-23T06:00:58.206Z,22.50
2022-09-23T06:01:58.239Z,22.50
2022-09-23T06:02:58.297Z,28.12
2022-09-23T06:03:58.178Z,28.12
2022-09-23T06:04:58.138Z,28.12
2022-09-23T06:05:58.175Z,28.12
2022-09-23T06:07:02.757Z,28.12
2022-09-23T06:07:59.836Z,28.12
2022-09-23T06:08:59.016Z,28.12
2022-09-23T06:09:58.103Z,28.12
2022-09-23T06:10:58.065Z,33.75
2022-09-23T06:11:58.095Z,33.75
2022-09-23T06:12:58.076Z,33.75
2022-09-23T06:13:58.056Z,33.75
2022-09-23T06:14:58.027Z,33.75
2022-09-23T06:15:58.094Z,39.38
2022-09-23T06:16:58.003Z,39.38
2022-09-23T06:17:58.016Z,39.38
2022-09-23T06:19:01.764Z,39.38
2022-09-23T06:19:58.984Z,39.38
2022-09-23T06:20:57.954Z,39.38
2022-09-23T06:21:57.995Z,39.38
2022-09-23T06:22:57.926Z,39.38
2022-09-23T06:23:58.125Z,45.00
2022-09-23T06:24:57.984Z,45.00
2022-09-23T06:25:57.962Z,45.00
2022-09-23T06:26:58.131Z,45.00
2022-09-23T06:27:58.714Z,45.00
2022-09-23T06:28:57.894Z,45.00
2022-09-23T06:29:57.902Z,45.00
2022-09-23T06:30:57.920Z,45.00
2022-09-23T06:31:57.940Z,45.00
2022-09-23T06:32:57.823Z,50.62
2022-09-23T06:34:08.509Z,50.62
2022-09-23T06:34:58.811Z,50.62
2022-09-23T06:35:59.903Z,50.62
2022-09-23T06:36:59.041Z,56.25
2022-09-23T06:37:57.782Z,56.25
2022-09-23T06:38:57.763Z,56.25
2022-09-23T06:39:57.760Z,56.25
2022-09-23T06:40:57.732Z,56.25
2022-09-23T06:41:57.745Z,61.88
2022-09-23T06:42:57.713Z,61.88
2022-09-23T06:43:57.732Z,61.88
2022-09-23T06:44:57.721Z,61.88
2022-09-23T06:45:57.707Z,61.88
2022-09-23T06:46:57.831Z,61.88
2022-09-23T06:47:57.700Z,61.88
2022-09-23T06:48:57.662Z,56.25
2022-09-23T06:49:58.370Z,61.88
2022-09-23T06:50:57.655Z,61.88
2022-09-23T06:51:57.622Z,61.88
2022-09-23T06:52:57.610Z,61.88
2022-09-23T06:53:57.616Z,61.88
2022-09-23T06:54:57.582Z,61.88
2022-09-23T06:55:57.582Z,56.25
2022-09-23T06:56:57.564Z,61.88
2022-09-23T06:57:57.561Z,61.88
2022-09-23T06:58:57.531Z,61.88
2022-09-23T06:59:57.536Z,67.50
2022-09-23T07:00:57.511Z,67.50
2022-09-23T07:01:57.624Z,67.50
2022-09-23T07:02:57.537Z,61.88
2022-09-23T07:03:57.496Z,61.88
2022-09-23T07:04:57.497Z,61.88
2022-09-23T07:05:57.491Z,61.88
2022-09-23T07:06:57.453Z,67.50
2022-09-23T07:07:57.430Z,67.50
2022-09-23T07:08:57.442Z,67.50
2022-09-23T07:09:58.233Z,73.12
2022-09-23T07:10:57.440Z,73.12
2022-09-23T07:11:57.388Z,73.12
2022-09-23T07:12:57.381Z,67.50
2022-09-23T07:13:57.592Z,67.50
2022-09-23T07:14:57.380Z,67.50
2022-09-23T07:15:57.356Z,67.50
2022-09-23T07:16:57.347Z,73.12
2022-09-23T07:17:57.320Z,67.50
2022-09-23T07:18:57.573Z,67.50
2022-09-23T07:19:57.292Z,67.50
2022-09-23T07:20:57.301Z,67.50
2022-09-23T07:21:57.284Z,67.50
2022-09-23T07:22:57.280Z,67.50
2022-09-23T07:23:58.075Z,67.50
2022-09-23T07:24:57.266Z,67.50
2022-09-23T07:25:57.239Z,67.50
2022-09-23T07:26:57.525Z,67.50
2022-09-23T07:27:57.199Z,61.88
2022-09-23T07:28:57.214Z,61.88
2022-09-23T07:29:57.958Z,61.88
2022-09-23T07:31:00.592Z,61.88
2022-09-23T07:32:07.702Z,67.50
2022-09-23T07:32:58.176Z,67.50
2022-09-23T07:33:57.758Z,61.88
2022-09-23T07:34:57.138Z,61.88
2022-09-23T07:35:57.139Z,61.88
2022-09-23T07:36:57.214Z,67.50
2022-09-23T07:37:57.079Z,67.50
2022-09-23T07:38:57.088Z,67.50
2022-09-23T07:39:57.058Z,67.50
2022-09-23T07:40:57.100Z,73.12
2022-09-23T07:41:57.042Z,67.50
2022-09-23T07:42:57.038Z,67.50
2022-09-23T07:43:57.017Z,67.50
2022-09-23T07:44:57.024Z,73.12
2022-09-23T07:45:57.378Z,73.12
2022-09-23T07:46:57.756Z,73.12
2022-09-23T07:47:56.977Z,73.12
2022-09-23T07:48:57.010Z,73.12
2022-09-23T07:49:57.727Z,73.12
2022-09-23T07:50:57.888Z,61.88
2022-09-23T07:51:57.795Z,67.50
2022-09-23T07:52:56.938Z,67.50
2022-09-23T07:53:56.919Z,67.50
2022-09-23T07:54:56.989Z,73.12
2022-09-23T07:55:56.882Z,67.50
2022-09-23T07:56:56.890Z,67.50
2022-09-23T07:57:56.874Z,67.50
2022-09-23T07:58:56.944Z,67.50
2022-09-23T07:59:56.838Z,67.50
2022-09-23T08:00:56.838Z,67.50
2022-09-23T08:01:56.868Z,67.50
2022-09-23T08:02:57.824Z,67.50
2022-09-23T08:03:56.798Z,67.50
2022-09-23T08:04:56.797Z,67.50
2022-09-23T08:05:56.807Z,67.50
2022-09-23T08:06:56.777Z,67.50
2022-09-23T08:07:56.750Z,67.50
2022-09-23T08:08:57.194Z,67.50
2022-09-23T08:09:57.188Z,67.50
2022-09-23T08:10:56.778Z,73.12
2022-09-23T08:11:56.716Z,73.12
2022-09-23T08:12:56.708Z,67.50
2022-09-23T08:13:56.688Z,73.12
2022-09-23T08:14:56.718Z,73.12
2022-09-23T08:15:56.673Z,73.12
2022-09-23T08:16:56.701Z,73.12
2022-09-23T08:17:56.618Z,73.12
2022-09-23T08:18:56.679Z,78.75
2022-09-23T08:19:56.607Z,78.75
2022-09-23T08:20:56.607Z,78.75
2022-09-23T08:21:56.588Z,84.38
2022-09-23T08:22:56.599Z,84.38
2022-09-23T08:23:56.568Z,84.38
2022-09-23T08:24:56.959Z,90.00
2022-09-23T08:25:58.508Z,90.00
2022-09-23T08:26:56.547Z,90.00
2022-09-23T08:27:56.747Z,90.00
2022-09-23T08:28:56.569Z,95.62
2022-09-23T08:29:57.247Z,101.25
2022-09-23T08:30:57.420Z,101.25
2022-09-23T08:31:56.486Z,106.88
2022-09-23T08:32:57.295Z,106.88
2022-09-23T08:33:56.508Z,112.50
2022-09-23T08:34:56.484Z,112.50
2022-09-23T08:35:56.480Z,112.50
2022-09-23T08:36:56.438Z,112.50
2022-09-23T08:37:56.426Z,118.12
2022-09-23T08:38:56.427Z,123.75
2022-09-23T08:39:56.388Z,129.38
2022-09-23T08:40:56.408Z,129.38
2022-09-23T08:41:59.056Z,129.38
2022-09-23T08:42:56.366Z,135.00
2022-09-23T08:43:56.589Z,135.00
2022-09-23T08:44:56.343Z,135.00
2022-09-23T08:45:56.363Z,135.00
2022-09-23T08:46:56.388Z,135.00
2022-09-23T08:47:57.016Z,135.00
2022-09-23T08:48:56.654Z,135.00
2022-09-23T08:49:56.297Z,135.00
2022-09-23T08:50:56.992Z,135.00
2022-09-23T08:51:56.265Z,135.00
2022-09-23T08:52:56.257Z,135.00
2022-09-23T08:53:56.237Z,135.00
2022-09-23T08:54:56.227Z,135.00
2022-09-23T08:55:56.222Z,135.00
2022-09-23T08:56:56.200Z,135.00
2022-09-23T08:58:23.496Z,135.00
2022-09-23T08:58:57.175Z,135.00
2022-09-23T08:59:56.191Z,135.00
2022-09-23T09:00:56.164Z,135.00
2022-09-23T09:01:56.135Z,140.62
2022-09-23T09:02:56.168Z,140.62
2022-09-23T09:03:56.105Z,140.62
2022-09-23T09:04:56.126Z,140.62
2022-09-23T09:05:56.117Z,140.62
2022-09-23T09:07:07.577Z,140.62
2022-09-23T09:07:57.078Z,140.62
2022-09-23T09:08:56.070Z,140.62
2022-09-23T09:09:56.043Z,140.62
2022-09-23T09:10:56.047Z,135.00
2022-09-23T09:11:56.765Z,140.62
2022-09-23T09:12:56.928Z,135.00
2022-09-23T09:13:56.027Z,135.00
2022-09-23T09:14:56.738Z,140.62
2022-09-23T09:15:56.290Z,140.62
2022-09-23T09:16:59.987Z,140.62
2022-09-23T09:17:56.698Z,140.62
2022-09-23T09:18:55.965Z,140.62
2022-09-23T09:19:56.763Z,140.62
2022-09-23T09:20:56.668Z,140.62
2022-09-23T09:21:56.678Z,146.25
2022-09-23T09:22:55.930Z,151.88
2022-09-23T09:23:56.039Z,157.50
2022-09-23T09:24:55.897Z,163.12
2022-09-23T09:25:56.079Z,168.75
2022-09-23T09:26:55.866Z,174.38
2022-09-23T09:27:55.846Z,174.38
2022-09-23T09:29:02.463Z,174.38
2022-09-23T09:29:56.811Z,174.38
2022-09-23T09:30:55.845Z,174.38
2022-09-23T09:31:56.636Z,174.38
2022-09-23T09:32:56.538Z,163.12
2022-09-23T09:33:55.788Z,163.12
2022-09-23T09:34:56.605Z,163.12
2022-09-23T09:35:55.768Z,157.50
2022-09-23T09:36:55.776Z,157.50
2022-09-23T09:37:55.717Z,163.12
2022-09-23T09:38:55.728Z,163.12
2022-09-23T09:39:55.708Z,168.75
2022-09-23T09:40:55.826Z,168.75
2022-09-23T09:41:56.238Z,174.38
2022-09-23T09:42:55.688Z,174.38
2022-09-23T09:43:55.657Z,174.38
2022-09-23T09:44:55.658Z,180.00
2022-09-23T09:45:58.039Z,185.62
2022-09-23T09:46:56.504Z,185.62
2022-09-23T09:47:55.609Z,180.00
2022-09-23T09:48:55.868Z,185.62
2022-09-23T09:49:55.619Z,191.25
2022-09-23T09:50:55.597Z,196.88
2022-09-23T09:51:56.511Z,202.50
2022-09-23T09:52:55.537Z,202.50
2022-09-23T09:53:55.788Z,202.50
2022-09-23T09:54:55.484Z,202.50
2022-09-23T09:55:55.470Z,208.12
2022-09-23T09:56:55.524Z,208.12
2022-09-23T09:57:55.435Z,202.50
2022-09-23T09:58:55.463Z,208.12
2022-09-23T09:59:55.413Z,208.12
2022-09-23T10:00:55.422Z,208.12
2022-09-23T10:01:55.402Z,208.12
2022-09-23T10:02:55.403Z,213.75
2022-09-23T10:03:56.961Z,213.75
2022-09-23T10:04:55.363Z,213.75
2022-09-23T10:05:55.443Z,213.75
2022-09-23T10:06:55.359Z,213.75
2022-09-23T10:07:55.321Z,208.12
2022-09-23T10:08:55.381Z,208.12
2022-09-23T10:09:58.301Z,208.12
2022-09-23T10:10:56.308Z,208.12
2022-09-23T10:11:55.280Z,202.50
2022-09-23T10:12:55.297Z,202.50
2022-09-23T10:13:56.129Z,202.50
2022-09-23T10:14:55.619Z,202.50
2022-09-23T10:15:55.232Z,202.50
2022-09-23T10:16:55.262Z,202.50
2022-09-23T10:17:55.210Z,202.50
2022-09-23T10:18:55.208Z,208.12
2022-09-23T10:19:56.059Z,208.12
2022-09-23T10:20:55.198Z,208.12
2022-09-23T10:21:55.188Z,208.12
2022-09-23T10:22:55.178Z,213.75
2022-09-23T10:23:55.139Z,213.75
2022-09-23T10:24:55.150Z,213.75
2022-09-23T10:25:55.267Z,213.75
2022-09-23T10:26:55.146Z,213.75
2022-09-23T10:27:55.119Z,213.75
2022-09-23T10:28:55.101Z,213.75
2022-09-23T10:29:55.305Z,213.75
2022-09-23T10:30:55.113Z,219.38
2022-09-23T10:31:55.049Z,219.38
2022-09-23T10:32:55.859Z,225.00
2022-09-23T10:33:55.053Z,225.00
2022-09-23T10:34:55.901Z,225.00
2022-09-23T10:35:55.084Z,225.00
2022-09-23T10:36:55.183Z,225.00
2022-09-23T10:37:54.973Z,225.00
2022-09-23T10:38:54.991Z,225.00
2022-09-23T10:39:54.969Z,225.00
2022-09-23T10:40:55.045Z,225.00
2022-09-23T10:41:54.976Z,225.00
2022-09-23T10:42:54.947Z,225.00
2022-09-23T10:43:54.924Z,230.62
2022-09-23T10:44:54.940Z,230.62
2022-09-23T10:45:54.962Z,225.00
2022-09-23T10:46:54.900Z,225.00
2022-09-23T10:47:54.878Z,225.00
2022-09-23T10:48:54.878Z,225.00
2022-09-23T10:49:55.039Z,219.38
2022-09-23T10:50:54.864Z,219.38
2022-09-23T10:51:54.830Z,219.38
2022-09-23T10:52:55.180Z,213.75
2022-09-23T10:53:55.626Z,213.75
2022-09-23T10:54:55.657Z,208.12
2022-09-23T10:55:54.806Z,208.12
2022-09-23T10:56:59.234Z,202.50
2022-09-23T10:57:54.794Z,202.50
2022-09-23T10:58:54.765Z,202.50
2022-09-23T10:59:54.745Z,202.50
2022-09-23T11:00:54.799Z,196.88
2022-09-23T11:01:54.786Z,191.25
2022-09-23T11:02:54.725Z,185.62
2022-09-23T11:03:54.717Z,185.62
2022-09-23T11:04:54.753Z,180.00
2022-09-23T11:05:54.690Z,174.38
2022-09-23T11:06:54.686Z,163.12
2022-09-23T11:07:54.650Z,163.12
2022-09-23T11:08:54.650Z,157.50
2022-09-23T11:09:54.709Z,157.50
2022-09-23T11:10:54.749Z,151.88
2022-09-23T11:11:54.622Z,151.88
2022-09-23T11:12:54.641Z,146.25
2022-09-23T11:13:54.937Z,140.62
2022-09-23T11:14:55.412Z,140.62
2022-09-23T11:15:54.802Z,140.62
2022-09-23T11:16:54.650Z,135.00
2022-09-23T11:17:54.555Z,135.00
2022-09-23T11:18:54.555Z,135.00
2022-09-23T11:19:54.534Z,129.38
2022-09-23T11:20:54.761Z,129.38
2022-09-23T11:21:54.513Z,129.38
2022-09-23T11:22:54.518Z,123.75
2022-09-23T11:23:54.516Z,123.75
2022-09-23T11:24:54.489Z,123.75
2022-09-23T11:25:54.478Z,129.38
2022-09-23T11:26:54.443Z,129.38
2022-09-23T11:27:54.479Z,129.38
2022-09-23T11:28:54.447Z,129.38
2022-09-23T11:29:54.428Z,129.38
2022-09-23T11:30:54.452Z,129.38
2022-09-23T11:31:59.283Z,129.38
2022-09-23T11:32:55.445Z,129.38
2022-09-23T11:33:54.390Z,123.75
2022-09-23T11:34:55.300Z,129.38
2022-09-23T11:35:55.192Z,129.38
2022-09-23T11:36:54.383Z,135.00
2022-09-23T11:37:54.391Z,135.00
2022-09-23T11:38:54.335Z,135.00
2022-09-23T11:39:54.322Z,129.38
2022-09-23T11:40:54.411Z,129.38
2022-09-23T11:41:54.333Z,123.75
2022-09-23T11:42:55.033Z,123.75
2022-09-23T11:43:54.303Z,123.75
2022-09-23T11:44:54.274Z,123.75
2022-09-23T11:45:55.070Z,129.38
2022-09-23T11:46:54.884Z,129.38
2022-09-23T11:47:54.244Z,135.00
2022-09-23T11:48:54.205Z,135.00
2022-09-23T11:49:54.205Z,135.00
2022-09-23T11:50:54.275Z,140.62
2022-09-23T11:51:54.177Z,140.62
2022-09-23T11:52:54.165Z,140.62
2022-09-23T11:53:54.161Z,146.25
2022-09-23T11:54:54.407Z,146.25
2022-09-23T11:55:58.239Z,146.25
2022-09-23T11:56:54.123Z,151.88
2022-09-23T11:57:54.118Z,157.50
2022-09-23T11:58:57.403Z,163.12
2022-09-23T11:59:55.122Z,168.75
2022-09-23T12:01:00.406Z,168.75
2022-09-23T12:01:55.359Z,174.38
2022-09-23T12:03:04.316Z,174.38
2022-09-23T12:03:55.126Z,174.38
2022-09-23T12:04:58.148Z,180.00
2022-09-23T12:05:54.197Z,180.00
2022-09-23T12:06:54.894Z,180.00
2022-09-23T12:07:54.023Z,180.00
2022-09-23T12:08:54.847Z,180.00
2022-09-23T12:09:58.494Z,180.00
2022-09-23T12:10:54.011Z,174.38
2022-09-23T12:11:53.980Z,174.38
2022-09-23T12:12:54.720Z,168.75
2022-09-23T12:13:54.880Z,168.75
2022-09-23T12:14:53.941Z,174.38
2022-09-23T12:15:53.941Z,174.38
2022-09-23T12:16:54.896Z,174.38
2022-09-23T12:17:53.922Z,174.38
2022-09-23T12:18:53.933Z,180.00
2022-09-23T12:19:54.818Z,185.62
2022-09-23T12:20:53.892Z,185.62
2022-09-23T12:21:53.903Z,185.62
2022-09-23T12:22:54.274Z,191.25
2022-09-23T12:23:53.833Z,196.88
2022-09-23T12:24:53.878Z,202.50
2022-09-23T12:25:53.815Z,196.88
2022-09-23T12:26:53.793Z,202.50
2022-09-23T12:27:53.798Z,202.50
2022-09-23T12:28:53.769Z,196.88
2022-09-23T12:29:53.778Z,191.25
2022-09-23T12:30:53.826Z,180.00
2022-09-23T12:31:53.774Z,180.00
2022-09-23T12:32:53.716Z,174.38
2022-09-23T12:33:53.719Z,174.38
2022-09-23T12:34:53.803Z,174.38
2022-09-23T12:35:53.842Z,168.75
2022-09-23T12:36:54.464Z,174.38
2022-09-23T12:37:54.368Z,168.75
2022-09-23T12:38:53.675Z,168.75
2022-09-23T12:39:53.758Z,174.38
2022-09-23T12:40:53.692Z,174.38
2022-09-23T12:41:53.628Z,168.75
2022-09-23T12:42:53.596Z,174.38
2022-09-23T12:43:53.598Z,180.00
2022-09-23T12:44:53.578Z,185.62
2022-09-23T12:45:53.879Z,185.62
2022-09-23T12:46:53.548Z,185.62
2022-09-23T12:47:53.559Z,191.25
2022-09-23T12:48:53.527Z,191.25
2022-09-23T12:49:53.526Z,196.88
2022-09-23T12:50:53.538Z,196.88
2022-09-23T12:51:53.527Z,196.88
2022-09-23T12:52:53.487Z,196.88
2022-09-23T12:53:54.059Z,196.88